Time;durP1;ratioP1;P1;durP2;ratioP2;P2;SDS_P1;SDS_P2;PMS_P1;PMS_P2;Temp;Humidity;BMP_temperature;BMP_pressure;BME280_temperature;BME280_humidity;BME280_pressure;Samples;Min_cycle;Max_cycle;Signal;HPM_P1;HPM_P2
2023/06/11 00:00:11;;;;;;;6.07;2.70;;;11.90;99.90;;;;;;4869448;28;3016684;-73
2023/06/11 00:02:42;;;;;;;7.03;3.03;;;12.00;99.90;;;;;;4970815;28;20204;-73
2023/06/11 00:05:15;;;;;;;5.68;2.67;;;12.10;99.90;;;;;;4972232;28;20204;-73
2023/06/11 00:07:47;;;;;;;5.43;2.45;;;12.20;99.90;;;;;;4972279;28;20200;-73
2023/06/11 00:10:18;;;;;;;5.60;2.42;;;12.30;99.90;;;;;;4971072;28;20319;-73
2023/06/11 00:12:51;;;;;;;5.25;2.40;;;12.40;99.90;;;;;;4972820;28;20215;-74
2023/06/11 00:15:22;;;;;;;5.07;2.28;;;12.50;99.90;;;;;;4965817;28;20670;-73
2023/06/11 00:17:53;;;;;;;5.95;2.42;;;12.60;99.90;;;;;;4972780;28;20204;-73
2023/06/11 00:20:25;;;;;;;3.80;1.92;;;12.80;99.90;;;;;;4975961;28;20204;-73
2023/06/11 00:22:56;;;;;;;7.18;2.40;;;12.80;99.90;;;;;;4971885;28;20206;-73
2023/06/11 00:25:28;;;;;;;5.68;2.20;;;12.80;99.90;;;;;;4973217;28;20668;-74
2023/06/11 00:28:01;;;;;;;4.10;2.13;;;13.00;99.90;;;;;;4974206;28;20601;-73
2023/06/11 00:30:32;;;;;;;5.47;2.28;;;13.10;99.90;;;;;;4974833;28;20192;-73
2023/06/11 00:33:03;;;;;;;6.40;2.42;;;13.20;99.90;;;;;;4974674;28;20212;-73
2023/06/11 00:35:34;;;;;;;5.07;2.10;;;13.20;99.90;;;;;;4972297;28;20207;-73
2023/06/11 00:38:05;;;;;;;3.17;1.83;;;13.20;99.90;;;;;;4970592;28;20595;-73
2023/06/11 00:40:36;;;;;;;5.68;2.17;;;13.30;99.90;;;;;;4972820;28;20227;-73
2023/06/11 00:43:10;;;;;;;6.70;2.05;;;13.30;99.90;;;;;;4969849;28;20211;-73
2023/06/11 00:45:41;;;;;;;6.00;2.03;;;13.40;99.90;;;;;;4970027;28;20648;-73
2023/06/11 00:48:12;;;;;;;4.88;1.80;;;13.40;99.90;;;;;;4973371;28;20208;-72
2023/06/11 00:50:47;;;;;;;6.70;2.00;;;13.50;99.90;;;;;;4974430;28;20200;-73
2023/06/11 00:53:19;;;;;;;4.82;1.70;;;13.60;99.90;;;;;;4974543;28;20203;-73
2023/06/11 00:55:51;;;;;;;4.78;2.22;;;13.70;99.90;;;;;;4976154;28;20793;-73
2023/06/11 00:58:24;;;;;;;5.95;2.17;;;13.70;99.90;;;;;;4974423;28;20196;-73
2023/06/11 01:00:58;;;;;;;3.65;1.60;;;13.80;99.90;;;;;;4973517;28;20580;-73
2023/06/11 01:03:33;;;;;;;4.93;2.03;;;13.90;99.90;;;;;;4972958;28;20218;-73
2023/06/11 01:06:06;;;;;;;3.53;1.67;;;14.00;99.90;;;;;;4972549;28;20202;-73
2023/06/11 01:08:40;;;;;;;3.80;2.25;;;14.20;99.90;;;;;;4969063;28;20206;-73
2023/06/11 01:11:14;;;;;;;4.88;1.98;;;14.30;99.90;;;;;;4972276;28;20221;-73
2023/06/11 01:13:47;;;;;;;3.90;2.00;;;14.30;99.90;;;;;;4972162;28;20251;-73
2023/06/11 01:16:23;;;;;;;4.82;1.70;;;14.40;99.90;;;;;;4971759;28;20196;-73
2023/06/11 01:18:58;;;;;;;5.07;1.77;;;14.40;99.90;;;;;;4966861;28;20196;-73
2023/06/11 01:21:35;;;;;;;7.47;2.20;;;14.40;99.90;;;;;;4971401;28;20573;-73
2023/06/11 01:24:14;;;;;;;3.53;1.90;;;14.60;99.90;;;;;;4966846;28;20347;-73
2023/06/11 01:26:53;;;;;;;5.72;2.40;;;14.60;99.90;;;;;;4969856;28;20210;-73
2023/06/11 01:29:26;;;;;;;5.25;2.13;;;14.70;99.90;;;;;;4965980;28;20602;-73
2023/06/11 01:31:59;;;;;;;6.05;2.10;;;14.80;99.90;;;;;;4967397;28;20219;-73
2023/06/11 01:34:31;;;;;;;5.70;1.90;;;14.90;99.90;;;;;;4971800;28;20205;-74
2023/06/11 01:37:02;;;;;;;4.53;1.73;;;15.00;99.90;;;;;;4972070;28;20240;-73
2023/06/11 01:39:33;;;;;;;6.45;1.80;;;15.10;99.90;;;;;;4971663;28;20566;-73
2023/06/11 01:42:05;;;;;;;4.10;2.10;;;15.20;99.90;;;;;;4966524;28;20366;-73
2023/06/11 01:44:38;;;;;;;3.15;1.50;;;15.20;99.90;;;;;;4975979;28;20274;-74
2023/06/11 01:47:09;;;;;;;3.88;1.65;;;15.30;99.90;;;;;;4974762;28;20555;-73
2023/06/11 01:49:40;;;;;;;4.22;1.48;;;15.30;99.90;;;;;;4977458;28;20601;-73
2023/06/11 01:52:11;;;;;;;6.65;1.85;;;15.40;99.90;;;;;;4974450;28;20197;-73
2023/06/11 01:54:43;;;;;;;4.97;1.77;;;15.50;99.90;;;;;;4974584;28;20203;-73
2023/06/11 01:57:14;;;;;;;3.58;1.63;;;15.60;99.90;;;;;;4971612;28;20199;-73
2023/06/11 01:59:48;;;;;;;4.65;2.30;;;15.80;99.90;;;;;;4981704;23;20852;-80
2023/06/11 02:02:19;;;;;;;5.15;2.40;;;15.90;99.90;;;;;;4969697;28;20210;-80
2023/06/11 02:04:51;;;;;;;7.00;2.50;;;16.00;99.90;;;;;;4962207;28;20223;-80
2023/06/11 02:07:22;;;;;;;6.55;2.00;;;16.00;99.90;;;;;;4972840;28;20197;-80
2023/06/11 02:09:53;;;;;;;6.20;2.65;;;16.00;99.90;;;;;;4973166;28;20208;-81
2023/06/11 02:12:24;;;;;;;4.32;2.10;;;16.10;99.90;;;;;;4975913;28;20200;-80
2023/06/11 02:14:58;;;;;;;4.63;2.20;;;16.20;99.90;;;;;;4971763;28;20215;-80
2023/06/11 02:17:29;;;;;;;4.25;2.00;;;16.40;99.90;;;;;;4966804;28;20228;-80
2023/06/11 02:20:00;;;;;;;5.40;2.30;;;16.50;99.90;;;;;;4962466;28;20201;-80
2023/06/11 02:22:31;;;;;;;4.97;2.80;;;16.60;99.90;;;;;;4968874;28;20211;-80
2023/06/11 02:25:02;;;;;;;5.72;2.47;;;16.70;99.90;;;;;;4971645;28;20227;-80
2023/06/11 02:27:33;;;;;;;5.88;2.03;;;16.80;99.90;;;;;;4958231;28;20208;-79
2023/06/11 02:30:07;;;;;;;3.47;1.58;;;17.00;99.90;;;;;;4973032;28;20196;-79
2023/06/11 02:32:39;;;;;;;4.25;2.00;;;17.10;99.90;;;;;;4972790;28;20207;-79
2023/06/11 02:35:11;;;;;;;7.15;2.10;;;17.20;99.90;;;;;;4963720;28;20276;-80
2023/06/11 02:37:42;;;;;;;5.22;2.00;;;17.40;99.90;;;;;;4966076;28;20211;-80
2023/06/11 02:40:14;;;;;;;4.68;1.92;;;17.40;99.90;;;;;;4960797;28;20590;-81
2023/06/11 02:42:45;;;;;;;3.92;1.90;;;17.50;99.90;;;;;;4962966;28;20200;-81
2023/06/11 02:45:18;;;;;;;6.53;2.10;;;17.50;99.90;;;;;;4971417;28;20223;-80
2023/06/11 02:47:49;;;;;;;7.78;2.28;;;17.50;99.90;;;;;;4968722;28;20209;-81
2023/06/11 02:50:20;;;;;;;7.13;2.33;;;17.50;99.90;;;;;;4962044;28;20201;-81
2023/06/11 02:52:52;;;;;;;9.57;2.58;;;17.50;99.90;;;;;;4971644;28;20679;-81
2023/06/11 02:55:23;;;;;;;7.15;2.40;;;17.50;99.90;;;;;;4965952;28;20192;-79
2023/06/11 02:57:54;;;;;;;7.85;2.38;;;17.50;99.90;;;;;;4968895;28;20204;-81
2023/06/11 03:00:27;;;;;;;7.50;2.30;;;17.50;99.90;;;;;;4955027;28;20244;-81
2023/06/11 03:02:58;;;;;;;4.22;2.10;;;17.50;99.90;;;;;;4946368;28;20256;-81
2023/06/11 03:05:29;;;;;;;5.60;1.95;;;17.50;99.90;;;;;;4955289;28;20220;-81
2023/06/11 03:08:00;;;;;;;5.93;2.33;;;17.60;99.90;;;;;;4955253;28;20196;-80
2023/06/11 03:10:31;;;;;;;5.93;1.70;;;17.60;99.90;;;;;;4955736;28;20575;-81
2023/06/11 03:13:02;;;;;;;5.78;1.95;;;17.50;99.90;;;;;;4953900;28;20675;-81
2023/06/11 03:15:36;;;;;;;6.13;1.90;;;17.50;99.90;;;;;;4950336;28;20197;-80
2023/06/11 03:18:07;;;;;;;3.72;1.83;;;17.40;99.90;;;;;;4954409;28;20661;-79
2023/06/11 03:20:38;;;;;;;6.65;1.90;;;17.40;99.90;;;;;;4955018;28;20287;-81
2023/06/11 03:23:10;;;;;;;4.20;2.00;;;17.40;99.90;;;;;;4945603;28;20193;-81
2023/06/11 03:25:41;;;;;;;5.22;1.90;;;17.40;99.90;;;;;;4952553;28;20646;-80
2023/06/11 03:28:12;;;;;;;3.85;1.70;;;17.50;99.90;;;;;;4955599;28;20201;-82
2023/06/11 03:30:45;;;;;;;5.10;1.90;;;17.60;99.90;;;;;;4955359;28;20205;-81
2023/06/11 03:33:17;;;;;;;4.35;1.80;;;17.60;99.90;;;;;;4954987;28;20246;-80
2023/06/11 03:35:48;;;;;;;4.57;1.80;;;17.60;99.90;;;;;;4954933;28;20660;-82
2023/06/11 03:38:19;;;;;;;4.97;1.73;;;17.60;99.90;;;;;;4949147;28;20568;-81
2023/06/11 03:40:50;;;;;;;6.32;2.05;;;17.60;99.90;;;;;;4951508;28;20574;-81
2023/06/11 03:43:21;;;;;;;5.47;1.92;;;17.60;99.90;;;;;;4954113;28;20197;-82
2023/06/11 03:45:54;;;;;;;3.92;1.70;;;17.60;99.90;;;;;;4948835;28;20224;-81
2023/06/11 03:48:25;;;;;;;5.22;1.80;;;17.60;99.90;;;;;;4949880;29;20560;-81
2023/06/11 03:50:56;;;;;;;4.38;1.80;;;17.60;99.90;;;;;;4954595;28;20574;-82
2023/06/11 03:53:27;;;;;;;5.53;1.98;;;17.70;99.90;;;;;;4953322;28;20201;-82
2023/06/11 03:55:58;;;;;;;4.05;1.60;;;17.70;99.90;;;;;;4954505;28;20675;-82
2023/06/11 03:58:30;;;;;;;4.22;1.70;;;17.60;99.90;;;;;;4953703;28;20225;-81
2023/06/11 04:01:03;;;;;;;5.82;1.88;;;17.60;99.90;;;;;;4950643;28;20203;-81
2023/06/11 04:03:34;;;;;;;5.75;1.70;;;17.60;99.90;;;;;;4953058;28;20203;-82
2023/06/11 04:06:05;;;;;;;6.20;1.95;;;17.60;99.90;;;;;;4951126;28;20603;-81
2023/06/11 04:08:36;;;;;;;4.82;1.73;;;17.60;99.90;;;;;;4953705;28;20197;-81
2023/06/11 04:11:07;;;;;;;6.50;1.85;;;17.60;99.90;;;;;;4945211;28;20210;-81
2023/06/11 04:13:38;;;;;;;5.00;1.52;;;17.50;99.90;;;;;;4948890;28;20204;-81
2023/06/11 04:16:11;;;;;;;6.30;1.77;;;17.50;99.90;;;;;;4951461;29;20209;-81
2023/06/11 04:18:42;;;;;;;5.95;1.80;;;17.40;99.90;;;;;;4952678;28;20197;-81
2023/06/11 04:21:13;;;;;;;5.45;1.70;;;17.40;99.90;;;;;;4948573;28;20193;-81
2023/06/11 04:23:44;;;;;;;4.28;1.42;;;17.30;99.90;;;;;;4953802;28;20204;-80
2023/06/11 04:26:19;;;;;;;5.15;1.40;;;17.40;99.90;;;;;;4951704;28;20219;-82
2023/06/11 04:28:50;;;;;;;4.13;1.50;;;17.50;99.90;;;;;;4951121;28;20243;-80
2023/06/11 04:31:26;;;;;;;3.30;1.30;;;17.50;99.90;;;;;;4954278;28;20244;-81
2023/06/11 04:34:02;;;;;;;6.18;1.58;;;17.50;99.90;;;;;;4948491;28;20719;-80
2023/06/11 04:36:33;;;;;;;3.97;1.30;;;17.60;99.90;;;;;;4951794;28;20227;-81
2023/06/11 04:39:05;;;;;;;3.53;1.33;;;17.70;99.90;;;;;;4953530;28;20687;-80
2023/06/11 04:41:36;;;;;;;4.10;1.40;;;17.70;99.90;;;;;;4952636;28;20738;-80
2023/06/11 04:44:08;;;;;;;4.32;1.50;;;17.70;99.90;;;;;;4954156;28;20197;-81
2023/06/11 04:46:42;;;;;;;4.05;1.40;;;17.70;99.90;;;;;;4951525;28;20200;-81
2023/06/11 04:49:15;;;;;;;2.42;1.40;;;17.70;99.90;;;;;;4953701;28;20224;-81
2023/06/11 04:51:48;;;;;;;2.45;1.30;;;17.70;99.90;;;;;;4953463;28;20208;-80
2023/06/11 04:54:21;;;;;;;4.07;1.48;;;17.70;99.90;;;;;;4943471;28;20740;-81
2023/06/11 04:56:52;;;;;;;4.13;1.42;;;17.60;99.90;;;;;;4949125;28;20232;-81
2023/06/11 04:59:23;;;;;;;3.28;1.30;;;17.60;99.90;;;;;;4952630;28;20239;-81
2023/06/11 05:01:56;;;;;;;4.55;1.40;;;17.60;99.90;;;;;;4950000;29;20653;-80
2023/06/11 05:04:27;;;;;;;3.40;1.48;;;17.60;99.90;;;;;;4947866;29;20715;-81
2023/06/11 05:07:00;;;;;;;5.18;1.48;;;17.60;99.90;;;;;;4952239;29;20713;-81
2023/06/11 05:09:31;;;;;;;3.35;1.38;;;17.60;99.90;;;;;;4952581;28;20204;-81
2023/06/11 05:12:03;;;;;;;4.97;1.33;;;17.60;99.90;;;;;;4952995;29;20570;-81
2023/06/11 05:14:34;;;;;;;2.88;1.30;;;17.60;99.90;;;;;;4954799;28;20210;-81
2023/06/11 05:17:07;;;;;;;3.90;1.48;;;17.70;99.90;;;;;;4953087;28;20216;-81
2023/06/11 05:19:38;;;;;;;3.42;1.40;;;17.70;99.90;;;;;;4953615;28;20197;-81
2023/06/11 05:22:09;;;;;;;2.15;1.20;;;17.60;99.90;;;;;;4958866;28;20201;-82
2023/06/11 05:24:42;;;;;;;2.35;1.38;;;17.60;99.90;;;;;;4953826;28;20211;-81
2023/06/11 05:27:13;;;;;;;4.68;1.40;;;17.60;99.90;;;;;;4949841;29;20237;-81
2023/06/11 05:29:45;;;;;;;3.20;1.45;;;17.60;99.90;;;;;;4957771;28;20197;-82
2023/06/11 05:32:18;;;;;;;4.68;1.50;;;17.60;99.90;;;;;;4954352;28;20206;-81
2023/06/11 05:34:50;;;;;;;3.65;1.52;;;17.60;99.90;;;;;;4958445;28;20299;-82
2023/06/11 05:37:21;;;;;;;4.45;1.90;;;17.50;99.90;;;;;;4958172;28;20197;-81
2023/06/11 05:39:52;;;;;;;4.53;1.95;;;17.50;99.90;;;;;;4954053;28;20205;-82
2023/06/11 05:42:23;;;;;;;4.28;1.80;;;17.60;99.90;;;;;;4957572;28;20203;-82
2023/06/11 05:44:54;;;;;;;3.60;1.98;;;17.60;99.90;;;;;;4949639;28;20694;-81
2023/06/11 05:47:27;;;;;;;4.97;1.95;;;17.50;99.90;;;;;;4949532;29;20251;-81
2023/06/11 05:49:58;;;;;;;4.75;1.77;;;17.50;99.90;;;;;;4952961;29;20193;-81
2023/06/11 05:52:29;;;;;;;5.50;1.90;;;17.50;99.90;;;;;;4958119;28;20193;-81
2023/06/11 05:55:01;;;;;;;7.30;1.88;;;17.40;99.90;;;;;;4958418;29;20198;-81
2023/06/11 05:57:32;;;;;;;5.28;1.98;;;17.40;99.90;;;;;;4958294;28;20555;-81
2023/06/11 06:00:03;;;;;;;4.75;1.83;;;17.30;99.90;;;;;;4957938;28;20255;-81
2023/06/11 06:02:36;;;;;;;5.38;1.90;;;17.20;99.90;;;;;;4957380;28;20197;-81
2023/06/11 06:05:07;;;;;;;3.88;1.60;;;17.10;99.90;;;;;;4958009;29;20217;-81
2023/06/11 06:07:39;;;;;;;6.18;1.90;;;17.00;99.90;;;;;;4958143;28;20259;-81
2023/06/11 06:10:10;;;;;;;3.05;1.58;;;16.90;99.90;;;;;;4957957;28;20215;-81
2023/06/11 06:12:41;;;;;;;5.43;1.70;;;16.90;99.90;;;;;;4958126;28;20194;-81
2023/06/11 06:15:13;;;;;;;4.15;1.80;;;16.80;99.90;;;;;;4958077;28;20201;-81
2023/06/11 06:17:46;;;;;;;6.82;1.85;;;16.70;99.90;;;;;;4957971;28;20193;-81
2023/06/11 06:20:17;;;;;;;4.35;1.75;;;16.70;99.90;;;;;;4957656;28;20659;-79
2023/06/11 06:22:48;;;;;;;3.25;1.45;;;16.60;99.90;;;;;;4957912;28;20213;-79
2023/06/11 06:25:19;;;;;;;4.70;1.63;;;16.50;99.90;;;;;;4957811;28;20224;-79
2023/06/11 06:27:50;;;;;;;6.50;1.80;;;16.40;99.90;;;;;;4957763;28;20213;-80
2023/06/11 06:30:22;;;;;;;4.13;1.80;;;16.30;99.90;;;;;;4957445;28;20571;-80
2023/06/11 06:32:55;;;;;;;4.53;1.70;;;16.30;99.90;;;;;;4957647;28;20561;-80
2023/06/11 06:35:26;;;;;;;6.22;1.83;;;16.20;99.90;;;;;;4957451;28;20193;-80
2023/06/11 06:37:58;;;;;;;7.00;2.20;;;16.10;99.90;;;;;;4957657;28;20201;-80
2023/06/11 06:40:29;;;;;;;5.13;2.10;;;16.10;99.90;;;;;;4957454;28;20193;-80
2023/06/11 06:43:00;;;;;;;6.78;2.38;;;16.00;99.90;;;;;;4957482;28;20193;-80
2023/06/11 06:45:33;;;;;;;6.25;2.00;;;15.90;99.90;;;;;;4957377;28;20217;-80
2023/06/11 06:48:06;;;;;;;7.65;2.30;;;15.80;99.90;;;;;;4957358;28;20193;-80
2023/06/11 06:50:37;;;;;;;6.93;1.88;;;15.70;99.90;;;;;;4957096;28;20201;-80
2023/06/11 06:53:08;;;;;;;5.90;1.95;;;15.60;99.90;;;;;;4957352;28;20204;-80
2023/06/11 06:55:39;;;;;;;5.05;2.00;;;15.50;99.90;;;;;;4958036;28;20207;-80
2023/06/11 06:58:10;;;;;;;5.18;2.17;;;15.40;99.90;;;;;;4957426;28;20200;-80
2023/06/11 07:00:42;;;;;;;7.30;2.22;;;15.30;99.90;;;;;;4957007;28;20243;-80
2023/06/11 07:03:15;;;;;;;3.63;2.00;;;15.20;99.90;;;;;;4956982;28;20204;-80
2023/06/11 07:05:46;;;;;;;5.55;2.05;;;15.10;99.90;;;;;;4957015;28;20221;-80
2023/06/11 07:08:18;;;;;;;6.53;2.28;;;15.00;99.90;;;;;;4957083;28;20216;-80
2023/06/11 07:10:54;;;;;;;4.45;1.98;;;14.90;99.90;;;;;;4956983;28;20200;-80
2023/06/11 07:13:30;;;;;;;6.15;2.08;;;14.90;99.90;;;;;;4957075;29;20204;-80
2023/06/11 07:16:01;;;;;;;7.80;2.00;;;14.80;99.90;;;;;;4956993;28;20204;-80
2023/06/11 07:18:34;;;;;;;3.63;1.85;;;14.70;99.90;;;;;;4956769;28;20204;-79
2023/06/11 07:21:05;;;;;;;5.00;2.10;;;14.60;99.90;;;;;;4956795;28;20203;-80
2023/06/11 07:23:36;;;;;;;3.85;1.90;;;14.60;99.90;;;;;;4956854;28;20193;-80
2023/06/11 07:26:07;;;;;;;7.70;2.40;;;14.50;99.90;;;;;;4956614;29;20714;-80
2023/06/11 07:28:38;;;;;;;5.97;2.30;;;14.50;99.90;;;;;;4956615;28;20197;-80
2023/06/11 07:31:09;;;;;;;6.03;2.47;;;14.40;99.90;;;;;;4956504;28;20193;-79
2023/06/11 07:33:44;;;;;;;4.95;2.33;;;14.30;99.90;;;;;;4956278;28;20304;-80
2023/06/11 07:36:15;;;;;;;7.00;2.63;;;14.30;99.90;;;;;;4956506;28;20640;-80
2023/06/11 07:38:47;;;;;;;6.78;2.35;;;14.20;99.90;;;;;;4953288;28;20205;-80
2023/06/11 07:41:18;;;;;;;5.68;2.50;;;14.20;99.90;;;;;;4947973;28;20201;-80
2023/06/11 07:43:49;;;;;;;5.60;2.33;;;14.10;99.90;;;;;;4953416;28;20201;-80
2023/06/11 07:46:20;;;;;;;5.93;2.60;;;14.10;99.90;;;;;;4957353;28;20223;-80
2023/06/11 07:48:53;;;;;;;6.35;2.70;;;14.10;99.90;;;;;;4974147;28;20196;-79
2023/06/11 07:51:25;;;;;;;5.75;2.70;;;14.00;99.90;;;;;;4969355;28;20648;-80
2023/06/11 07:53:58;;;;;;;4.97;2.95;;;13.90;99.90;;;;;;4953935;28;20212;-80
2023/06/11 07:56:29;;;;;;;4.75;2.65;;;13.90;99.90;;;;;;4937048;29;20241;-79
2023/06/11 07:59:01;;;;;;;6.68;3.60;;;13.90;99.90;;;;;;4960678;23;20243;-72
2023/06/11 08:01:32;;;;;;;6.25;3.58;;;13.80;99.90;;;;;;4968187;28;20569;-71
2023/06/11 08:04:05;;;;;;;7.88;3.28;;;13.80;99.90;;;;;;4974062;28;20204;-74
2023/06/11 08:06:36;;;;;;;6.07;3.20;;;13.80;99.90;;;;;;4975037;28;20216;-73
2023/06/11 08:09:08;;;;;;;6.57;3.40;;;13.70;99.90;;;;;;4974669;28;20210;-73
2023/06/11 08:11:41;;;;;;;5.97;3.45;;;13.70;99.90;;;;;;4974214;28;20211;-73
2023/06/11 08:14:12;;;;;;;7.60;3.60;;;13.70;99.90;;;;;;4975069;28;20231;-73
2023/06/11 08:16:43;;;;;;;7.45;3.88;;;13.60;99.90;;;;;;4972476;28;20695;-73
2023/06/11 08:19:16;;;;;;;7.35;3.63;;;13.60;99.90;;;;;;4977596;28;20212;-72
2023/06/11 08:21:48;;;;;;;8.13;3.90;;;13.60;99.90;;;;;;4974317;28;20199;-72
2023/06/11 08:24:21;;;;;;;6.47;3.42;;;13.60;99.90;;;;;;4973847;28;20192;-73
2023/06/11 08:26:52;;;;;;;6.25;3.47;;;13.50;99.90;;;;;;4971593;28;20224;-72
2023/06/11 08:29:24;;;;;;;7.22;4.00;;;13.40;99.90;;;;;;4972194;28;20202;-72
2023/06/11 08:31:55;;;;;;;9.65;4.25;;;13.40;99.90;;;;;;4965001;28;20200;-73
2023/06/11 08:34:28;;;;;;;10.70;4.45;;;13.40;99.90;;;;;;4970489;28;20207;-72
2023/06/11 08:37:00;;;;;;;8.70;4.57;;;13.30;99.90;;;;;;4970462;28;20197;-72
2023/06/11 08:39:31;;;;;;;8.93;5.10;;;13.30;99.90;;;;;;4970230;28;20199;-72
2023/06/11 08:42:02;;;;;;;9.10;5.03;;;13.30;99.90;;;;;;4972592;28;20207;-72
2023/06/11 08:44:33;;;;;;;9.30;5.18;;;13.20;99.90;;;;;;4976702;28;20654;-73
2023/06/11 08:47:06;;;;;;;10.50;5.63;;;13.20;99.90;;;;;;4971292;28;20228;-72
2023/06/11 08:49:41;;;;;;;10.48;5.80;;;13.20;99.90;;;;;;4974120;28;20208;-73
2023/06/11 08:52:13;;;;;;;9.30;5.60;;;13.10;99.90;;;;;;4974296;28;20210;-73
2023/06/11 08:54:44;;;;;;;11.25;5.80;;;13.10;99.90;;;;;;4973585;28;20695;-73
2023/06/11 08:57:15;;;;;;;8.63;5.65;;;13.00;99.90;;;;;;4974373;28;20204;-73
2023/06/11 08:59:46;;;;;;;12.70;5.88;;;13.00;99.90;;;;;;4973857;28;20243;-73
2023/06/11 09:02:17;;;;;;;12.65;5.90;;;13.00;99.90;;;;;;4975702;28;20200;-72
2023/06/11 09:04:51;;;;;;;10.23;6.22;;;13.00;99.90;;;;;;4973491;28;20563;-72
2023/06/11 09:07:27;;;;;;;9.07;5.93;;;13.00;99.90;;;;;;4973588;28;20220;-72
2023/06/11 09:10:08;;;;;;;11.63;5.90;;;13.00;99.90;;;;;;4971820;28;20275;-72
2023/06/11 09:12:39;;;;;;;10.45;5.97;;;12.90;99.90;;;;;;4974197;28;20567;-72
2023/06/11 09:15:12;;;;;;;11.07;6.35;;;12.90;99.90;;;;;;4974073;28;20206;-72
2023/06/11 09:17:46;;;;;;;10.48;5.75;;;12.80;99.90;;;;;;4973346;28;20266;-72
2023/06/11 09:20:21;;;;;;;10.57;5.30;;;12.90;99.90;;;;;;4974145;28;20200;-72
2023/06/11 09:22:54;;;;;;;9.20;5.55;;;12.80;99.90;;;;;;4973321;28;20214;-72
2023/06/11 09:25:25;;;;;;;8.80;5.53;;;12.80;99.90;;;;;;4974065;28;20251;-72
2023/06/11 09:27:56;;;;;;;12.43;5.78;;;12.70;99.90;;;;;;4973287;28;20220;-72
2023/06/11 09:30:28;;;;;;;8.68;5.22;;;12.80;99.90;;;;;;4973253;28;20204;-72
2023/06/11 09:32:59;;;;;;;10.32;5.88;;;12.80;99.90;;;;;;4972965;28;20196;-71
2023/06/11 09:35:32;;;;;;;8.13;5.25;;;12.70;99.90;;;;;;4973865;28;20201;-72
2023/06/11 09:38:03;;;;;;;9.27;5.60;;;12.70;99.90;;;;;;4960680;28;20287;-72
2023/06/11 09:40:38;;;;;;;6.88;4.90;;;12.70;99.90;;;;;;4973088;28;20291;-72
2023/06/11 09:43:10;;;;;;;11.30;6.00;;;12.70;99.90;;;;;;4972980;28;20739;-72
2023/06/11 09:45:41;;;;;;;11.40;5.90;;;12.70;99.90;;;;;;4973808;28;20345;-72
2023/06/11 09:48:14;;;;;;;11.73;6.25;;;12.60;99.90;;;;;;4974249;28;20320;-73
2023/06/11 09:50:50;;;;;;;11.60;5.82;;;12.60;99.90;;;;;;4973695;28;20211;-72
2023/06/11 09:53:23;;;;;;;10.15;5.75;;;12.60;99.90;;;;;;4972141;28;20234;-72
2023/06/11 09:55:55;;;;;;;11.18;6.13;;;12.50;99.90;;;;;;4961383;28;20208;-72
2023/06/11 09:58:27;;;;;;;12.55;6.32;;;12.60;99.90;;;;;;4973253;28;20667;-72
2023/06/11 10:01:00;;;;;;;12.32;6.10;;;12.50;99.90;;;;;;4962018;28;20626;-72
2023/06/11 10:03:33;;;;;;;12.02;6.05;;;12.50;99.90;;;;;;4973289;28;20280;-72
2023/06/11 10:06:09;;;;;;;11.68;6.15;;;12.50;99.90;;;;;;4975687;28;20200;-72
2023/06/11 10:08:41;;;;;;;12.07;5.78;;;12.40;99.90;;;;;;4976059;28;20627;-72
2023/06/11 10:11:12;;;;;;;11.90;5.93;;;12.40;99.90;;;;;;4977187;28;20201;-72
2023/06/11 10:13:44;;;;;;;12.57;6.07;;;12.40;99.90;;;;;;4976014;28;20200;-72
2023/06/11 10:16:15;;;;;;;13.70;6.05;;;12.40;99.90;;;;;;4976767;28;20523;-72
2023/06/11 10:18:47;;;;;;;13.68;5.97;;;12.40;99.90;;;;;;4976156;28;20200;-72
2023/06/11 10:21:21;;;;;;;14.60;6.43;;;12.40;99.90;;;;;;4976372;28;20210;-72
2023/06/11 10:23:55;;;;;;;12.88;6.45;;;12.30;99.90;;;;;;4973813;28;20595;-72
2023/06/11 10:26:36;;;;;;;15.32;7.38;;;12.30;99.90;;;;;;4974860;28;20230;-72
2023/06/11 10:29:14;;;;;;;15.40;7.70;;;12.30;99.90;;;;;;4974897;28;20208;-72
2023/06/11 10:31:45;;;;;;;17.23;7.88;;;12.30;99.90;;;;;;4976904;28;20671;-72
2023/06/11 10:34:20;;;;;;;17.50;7.97;;;12.20;99.90;;;;;;4976355;28;20287;-72
2023/06/11 10:36:53;;;;;;;17.25;9.10;;;12.20;99.90;;;;;;4972438;28;20199;-72
2023/06/11 10:39:26;;;;;;;19.55;9.13;;;12.20;99.90;;;;;;4982567;28;20188;-72
2023/06/11 10:42:05;;;;;;;19.60;9.30;;;12.20;99.90;;;;;;4995894;28;20188;-72
2023/06/11 10:44:44;;;;;;;18.58;9.32;;;12.10;99.90;;;;;;4979581;28;20259;-73
2023/06/11 10:47:15;;;;;;;18.48;9.65;;;12.10;99.90;;;;;;4957255;28;20217;-72
2023/06/11 10:49:47;;;;;;;20.52;10.38;;;12.10;99.90;;;;;;4957011;28;20216;-72
2023/06/11 10:52:20;;;;;;;20.42;10.68;;;12.10;99.90;;;;;;4957131;28;20215;-72
2023/06/11 10:54:54;;;;;;;20.45;10.30;;;12.00;99.90;;;;;;4959990;28;20197;-73
2023/06/11 10:57:27;;;;;;;20.73;10.82;;;12.00;99.90;;;;;;4995480;28;20191;-72
2023/06/11 10:59:58;;;;;;;21.55;10.50;;;11.90;99.90;;;;;;4995364;28;20239;-72
2023/06/11 11:02:30;;;;;;;19.48;10.50;;;11.90;99.90;;;;;;4979252;28;20208;-73
2023/06/11 11:05:01;;;;;;;19.17;9.95;;;11.90;99.90;;;;;;4976262;28;20196;-73
2023/06/11 11:07:35;;;;;;;14.18;9.32;;;11.90;99.90;;;;;;4976316;28;20220;-72
2023/06/11 11:10:07;;;;;;;13.63;8.88;;;11.80;99.90;;;;;;4976077;28;20234;-72
2023/06/11 11:12:45;;;;;;;17.40;9.57;;;11.80;99.90;;;;;;4976285;28;20219;-72
2023/06/11 11:15:16;;;;;;;14.10;9.07;;;11.80;99.90;;;;;;4976189;28;20540;-72
2023/06/11 11:17:48;;;;;;;18.33;9.40;;;11.80;99.90;;;;;;4974471;28;20196;-72
2023/06/11 11:20:20;;;;;;;13.55;8.43;;;11.80;99.90;;;;;;4976042;28;20202;-73
2023/06/11 11:22:57;;;;;;;13.18;7.72;;;11.80;99.90;;;;;;4976750;28;20199;-72
2023/06/11 11:25:30;;;;;;;13.70;7.97;;;11.80;99.90;;;;;;4975757;28;20196;-72
2023/06/11 11:28:01;;;;;;;14.07;7.55;;;11.80;99.90;;;;;;4975909;28;20224;-72
2023/06/11 11:30:33;;;;;;;12.25;7.88;;;11.80;99.90;;;;;;4975981;28;20207;-73
2023/06/11 11:33:04;;;;;;;13.05;8.35;;;11.80;99.90;;;;;;4991026;28;20202;-72
2023/06/11 11:35:35;;;;;;;13.57;7.20;;;11.80;99.90;;;;;;4986559;28;20205;-72
2023/06/11 11:38:09;;;;;;;14.40;8.00;;;11.80;99.90;;;;;;4975792;28;20207;-73
2023/06/11 11:40:41;;;;;;;11.48;7.35;;;11.70;99.90;;;;;;4975442;28;20557;-73
2023/06/11 11:43:14;;;;;;;14.25;7.70;;;11.70;99.90;;;;;;4975780;28;20192;-72
2023/06/11 11:45:49;;;;;;;11.88;7.50;;;11.70;99.90;;;;;;4976319;28;20197;-73
2023/06/11 11:48:20;;;;;;;15.43;8.43;;;11.70;99.90;;;;;;4975616;28;20216;-73
2023/06/11 11:51:07;;;;;;;14.02;7.80;;;11.70;99.90;;;;;;4975620;28;20193;-72
2023/06/11 11:53:40;;;;;;;13.30;8.02;;;11.70;99.90;;;;;;4974365;28;20204;-72
2023/06/11 11:56:12;;;;;;;14.65;7.55;;;11.70;99.90;;;;;;4975448;28;20561;-72
2023/06/11 11:58:45;;;;;;;12.82;7.25;;;11.70;99.90;;;;;;4974977;28;20239;-72
2023/06/11 12:01:30;;;;;;;13.35;7.47;;;11.70;99.90;;;;;;4975405;28;20278;-73
2023/06/11 12:04:03;;;;;;;13.23;7.20;;;11.60;99.90;;;;;;4975143;28;20199;-74
2023/06/11 12:06:36;;;;;;;13.82;7.25;;;11.60;99.90;;;;;;4975317;28;20199;-72
2023/06/11 12:09:10;;;;;;;10.90;7.00;;;11.60;99.90;;;;;;4974333;28;20208;-74
2023/06/11 12:11:41;;;;;;;12.35;7.30;;;11.60;99.90;;;;;;4975079;28;20283;-72
2023/06/11 12:14:12;;;;;;;13.60;7.15;;;11.60;99.90;;;;;;4975137;28;20193;-72
2023/06/11 12:16:43;;;;;;;10.43;6.60;;;11.50;99.90;;;;;;4975426;28;20189;-73
2023/06/11 12:19:17;;;;;;;13.05;6.75;;;11.50;99.90;;;;;;4975129;28;20193;-73
2023/06/11 12:21:48;;;;;;;11.27;6.90;;;11.50;99.90;;;;;;4975051;28;20288;-73
2023/06/11 12:24:21;;;;;;;11.50;6.65;;;11.50;99.90;;;;;;4974892;28;20223;-73
2023/06/11 12:26:53;;;;;;;11.95;7.38;;;11.50;99.90;;;;;;4974067;28;20204;-73
2023/06/11 12:29:25;;;;;;;12.45;7.03;;;11.40;99.90;;;;;;4974849;28;20279;-72
2023/06/11 12:31:56;;;;;;;13.18;7.03;;;11.40;99.90;;;;;;4980843;28;20662;-71
2023/06/11 12:34:28;;;;;;;13.73;7.90;;;11.40;99.90;;;;;;4994299;28;20199;-72
2023/06/11 12:36:59;;;;;;;12.68;7.60;;;11.40;99.90;;;;;;4993941;28;20196;-73
2023/06/11 12:39:32;;;;;;;13.05;7.57;;;11.40;99.90;;;;;;4994226;28;20645;-72
2023/06/11 12:42:03;;;;;;;11.98;7.20;;;11.30;99.90;;;;;;4994440;28;20192;-72
2023/06/11 12:44:34;;;;;;;11.48;7.47;;;11.30;99.90;;;;;;4977260;28;20204;-72
2023/06/11 12:47:06;;;;;;;12.07;7.28;;;11.30;99.90;;;;;;4974530;28;20248;-72
2023/06/11 12:49:38;;;;;;;14.60;8.32;;;11.30;99.90;;;;;;4974600;28;20655;-72
2023/06/11 12:52:10;;;;;;;14.52;8.45;;;11.30;99.90;;;;;;4974419;28;20196;-72
2023/06/11 12:54:43;;;;;;;15.48;9.10;;;11.30;99.90;;;;;;4974951;28;20188;-72
2023/06/11 12:57:15;;;;;;;14.02;8.85;;;11.20;99.90;;;;;;4974776;28;20192;-72
2023/06/11 12:59:46;;;;;;;16.00;9.70;;;11.20;99.90;;;;;;4973459;28;20275;-73
2023/06/11 13:02:17;;;;;;;16.48;9.48;;;11.20;99.90;;;;;;4974564;28;20200;-73
2023/06/11 13:04:49;;;;;;;16.90;9.85;;;11.20;99.90;;;;;;4974508;28;20644;-72
2023/06/11 13:07:20;;;;;;;18.35;10.13;;;11.20;99.90;;;;;;4974284;28;20220;-72